Time,TemperatureF,DewpointF,PressureIn,WindDirection,WindDirectionDegrees,WindSpeedMPH,WindSpeedGustMPH,Humidity,HourlyPrecipIn,Conditions,Clouds,dailyrainin,SoftwareType,DateUTC
2013-12-02 00:03:00,35.1,35.0,-100.00,North,-999,-999.0,-999.0,99,-99.99,,,-99.99,,2013-12-02 05:03:00,
2013-12-02 00:05:00,35.1,35.0,-100.00,North,-999,-999.0,-999.0,99,-99.99,,,-99.99,,2013-12-02 05:05:00,
2013-12-02 00:08:00,35.1,35.0,-100.00,North,-999,-999.0,-999.0,99,-99.99,,,-99.99,,2013-12-02 05:08:00,
2013-12-02 00:13:00,35.1,35.0,-100.00,North,-999,-999.0,-999.0,99,-99.99,,,-99.99,,2013-12-02 05:13:00,
2013-12-02 00:18:00,34.9,34.8,-100.00,North,-999,-999.0,-999.0,99,-99.99,,,-99.99,,2013-12-02 05:18:00,
2013-12-02 00:20:00,35.1,35.0,-100.00,North,-999,-999.0,-999.0,99,-99.99,,,-99.99,,2013-12-02 05:20:00,
2013-12-02 00:25:00,35.1,35.0,-100.00,North,-999,-999.0,-999.0,99,-99.99,,,-99.99,,2013-12-02 05:25:00,
2013-12-02 00:30:00,34.9,34.8,-100.00,North,-999,-999.0,-999.0,99,-99.99,,,-99.99,,2013-12-02 05:30:00,
2013-12-02 00:35:00,34.9,34.8,-100.00,North,-999,-999.0,-999.0,99,-99.99,,,-99.99,,2013-12-02 05:35:00,
2013-12-02 00:40:00,34.9,34.8,-100.00,North,-999,-999.0,-999.0,99,-99.99,,,-99.99,,2013-12-02 05:40:00,
2013-12-02 00:45:00,34.9,34.8,-100.00,North,-999,-999.0,-999.0,99,-99.99,,,-99.99,,2013-12-02 05:45:00,
2013-12-02 00:50:00,34.9,34.8,-100.00,North,-999,-999.0,-999.0,99,-99.99,,,-99.99,,2013-12-02 05:50:00,
2013-12-02 00:53:00,34.9,34.8,-100.00,North,-999,-999.0,-999.0,99,-99.99,,,-99.99,,2013-12-02 05:53:00,
2013-12-02 00:58:00,35.1,35.0,-100.00,North,-999,-999.0,-999.0,99,-99.99,,,-99.99,,2013-12-02 05:58:00,
2013-12-02 01:03:00,34.9,34.8,-100.00,North,-999,-999.0,-999.0,99,-99.99,,,-99.99,,2013-12-02 06:03:00,
2013-12-02 01:08:00,34.9,34.8,-100.00,North,-999,-999.0,-999.0,99,-99.99,,,-99.99,,2013-12-02 06:08:00,
2013-12-02 01:13:00,34.9,34.8,-100.00,North,-999,-999.0,-999.0,99,-99.99,,,-99.99,,2013-12-02 06:13:00,
2013-12-02 01:18:00,34.9,34.8,-100.00,North,-999,-999.0,-999.0,99,-99.99,,,-99.99,,2013-12-02 06:18:00,
2013-12-02 01:23:00,34.9,34.8,-100.00,North,-999,-999.0,-999.0,99,-99.99,,,-99.99,,2013-12-02 06:23:00,
2013-12-02 01:28:00,34.9,34.8,-100.00,North,-999,-999.0,-999.0,99,-99.99,,,-99.99,,2013-12-02 06:28:00,
2013-12-02 01:33:00,34.9,34.8,-100.00,North,-999,-999.0,-999.0,99,-99.99,,,-99.99,,2013-12-02 06:33:00,
2013-12-02 01:38:00,34.9,34.8,-100.00,North,-999,-999.0,-999.0,99,-99.99,,,-99.99,,2013-12-02 06:38:00,
2013-12-02 01:43:00,34.9,34.8,-100.00,North,-999,-999.0,-999.0,99,-99.99,,,-99.99,,2013-12-02 06:43:00,
2013-12-02 01:48:00,34.9,34.8,-100.00,North,-999,-999.0,-999.0,99,-99.99,,,-99.99,,2013-12-02 06:48:00,
2013-12-02 01:53:00,34.9,34.8,-100.00,North,-999,-999.0,-999.0,99,-99.99,,,-99.99,,2013-12-02 06:53:00,
2013-12-02 01:58:00,34.7,34.7,-100.00,North,-999,-999.0,-999.0,99,-99.99,,,-99.99,,2013-12-02 06:58:00,
2013-12-02 02:03:00,34.7,34.7,-100.00,North,-999,-999.0,-999.0,99,-99.99,,,-99.99,,2013-12-02 07:03:00,
2013-12-02 02:08:00,34.7,34.7,-100.00,North,-999,-999.0,-999.0,99,-99.99,,,-99.99,,2013-12-02 07:08:00,
2013-12-02 02:13:00,34.5,34.5,-100.00,North,-999,-999.0,-999.0,99,-99.99,,,-99.99,,2013-12-02 07:13:00,
2013-12-02 02:18:00,34.7,34.7,-100.00,North,-999,-999.0,-999.0,99,-99.99,,,-99.99,,2013-12-02 07:18:00,
2013-12-02 02:23:00,34.5,34.5,-100.00,North,-999,-999.0,-999.0,99,-99.99,,,-99.99,,2013-12-02 07:23:00,
2013-12-02 02:28:00,34.5,34.5,-100.00,North,-999,-999.0,-999.0,99,-99.99,,,-99.99,,2013-12-02 07:28:00,
2013-12-02 02:33:00,34.5,34.5,-100.00,North,-999,-999.0,-999.0,99,-99.99,,,-99.99,,2013-12-02 07:33:00,
2013-12-02 02:38:00,34.5,34.5,-100.00,North,-999,-999.0,-999.0,99,-99.99,,,-99.99,,2013-12-02 07:38:00,
2013-12-02 02:43:00,34.5,34.5,-100.00,North,-999,-999.0,-999.0,99,-99.99,,,-99.99,,2013-12-02 07:43:00,
2013-12-02 02:48:00,34.5,34.5,-100.00,North,-999,-999.0,-999.0,99,-99.99,,,-99.99,,2013-12-02 07:48:00,
2013-12-02 02:53:00,34.5,34.5,-100.00,North,-999,-999.0,-999.0,99,-99.99,,,-99.99,,2013-12-02 07:53:00,
2013-12-02 02:58:00,34.5,34.5,-100.00,North,-999,-999.0,-999.0,99,-99.99,,,-99.99,,2013-12-02 07:58:00,
2013-12-02 03:03:00,34.5,34.5,-100.00,North,-999,-999.0,-999.0,99,-99.99,,,-99.99,,2013-12-02 08:03:00,
2013-12-02 03:08:00,34.3,34.3,-100.00,North,-999,-999.0,-999.0,99,-99.99,,,-99.99,,2013-12-02 08:08:00,
2013-12-02 03:13:00,34.5,34.5,-100.00,North,-999,-999.0,-999.0,99,-99.99,,,-99.99,,2013-12-02 08:13:00,
2013-12-02 03:18:00,34.3,34.3,-100.00,North,-999,-999.0,-999.0,99,-99.99,,,-99.99,,2013-12-02 08:18:00,
2013-12-02 03:23:00,34.3,34.3,-100.00,North,-999,-999.0,-999.0,99,-99.99,,,-99.99,,2013-12-02 08:23:00,
2013-12-02 03:28:00,34.2,34.1,-100.00,North,-999,-999.0,-999.0,99,-99.99,,,-99.99,,2013-12-02 08:28:00,
2013-12-02 03:33:00,34.3,34.3,-100.00,North,-999,-999.0,-999.0,99,-99.99,,,-99.99,,2013-12-02 08:33:00,
2013-12-02 03:38:00,34.2,34.1,-100.00,North,-999,-999.0,-999.0,99,-99.99,,,-99.99,,2013-12-02 08:38:00,
2013-12-02 03:43:00,34.2,34.1,-100.00,North,-999,-999.0,-999.0,99,-99.99,,,-99.99,,2013-12-02 08:43:00,
2013-12-02 03:48:00,34.2,34.1,-100.00,North,-999,-999.0,-999.0,99,-99.99,,,-99.99,,2013-12-02 08:48:00,
2013-12-02 03:53:00,34.2,34.1,-100.00,North,-999,-999.0,-999.0,99,-99.99,,,-99.99,,2013-12-02 08:53:00,
2013-12-02 03:58:00,34.2,34.1,-100.00,North,-999,-999.0,-999.0,99,-99.99,,,-99.99,,2013-12-02 08:58:00,
2013-12-02 04:03:00,34.0,33.9,-100.00,North,-999,-999.0,-999.0,99,-99.99,,,-99.99,,2013-12-02 09:03:00,
2013-12-02 04:08:00,34.2,34.1,-100.00,North,-999,-999.0,-999.0,99,-99.99,,,-99.99,,2013-12-02 09:08:00,
2013-12-02 04:13:00,34.0,33.9,-100.00,North,-999,-999.0,-999.0,99,-99.99,,,-99.99,,2013-12-02 09:13:00,
2013-12-02 04:18:00,34.0,33.9,-100.00,North,-999,-999.0,-999.0,99,-99.99,,,-99.99,,2013-12-02 09:18:00,
2013-12-02 04:23:00,34.0,33.9,-100.00,North,-999,-999.0,-999.0,99,-99.99,,,-99.99,,2013-12-02 09:23:00,
2013-12-02 04:28:00,33.8,33.8,-100.00,North,-999,-999.0,-999.0,99,-99.99,,,-99.99,,2013-12-02 09:28:00,
2013-12-02 04:33:00,33.8,33.8,-100.00,North,-999,-999.0,-999.0,99,-99.99,,,-99.99,,2013-12-02 09:33:00,
2013-12-02 04:38:00,33.8,33.8,-100.00,North,-999,-999.0,-999.0,99,-99.99,,,-99.99,,2013-12-02 09:38:00,
2013-12-02 04:43:00,33.8,33.8,-100.00,North,-999,-999.0,-999.0,99,-99.99,,,-99.99,,2013-12-02 09:43:00,
2013-12-02 04:48:00,33.8,33.8,-100.00,North,-999,-999.0,-999.0,99,-99.99,,,-99.99,,2013-12-02 09:48:00,
2013-12-02 04:53:00,33.8,33.8,-100.00,North,-999,-999.0,-999.0,99,-99.99,,,-99.99,,2013-12-02 09:53:00,
2013-12-02 04:58:00,33.8,33.8,-100.00,North,-999,-999.0,-999.0,99,-99.99,,,-99.99,,2013-12-02 09:58:00,
2013-12-02 05:03:00,33.8,33.8,-100.00,North,-999,-999.0,-999.0,99,-99.99,,,-99.99,,2013-12-02 10:03:00,
2013-12-02 05:08:00,33.8,33.8,-100.00,North,-999,-999.0,-999.0,99,-99.99,,,-99.99,,2013-12-02 10:08:00,
2013-12-02 05:13:00,33.8,33.8,-100.00,North,-999,-999.0,-999.0,99,-99.99,,,-99.99,,2013-12-02 10:13:00,
2013-12-02 05:18:00,33.6,33.6,-100.00,North,-999,-999.0,-999.0,99,-99.99,,,-99.99,,2013-12-02 10:18:00,
2013-12-02 05:23:00,33.6,33.6,-100.00,North,-999,-999.0,-999.0,99,-99.99,,,-99.99,,2013-12-02 10:23:00,
2013-12-02 05:28:00,33.6,33.6,-100.00,North,-999,-999.0,-999.0,99,-99.99,,,-99.99,,2013-12-02 10:28:00,
2013-12-02 05:33:00,33.6,33.6,-100.00,North,-999,-999.0,-999.0,99,-99.99,,,-99.99,,2013-12-02 10:33:00,
2013-12-02 05:38:00,33.4,33.4,-100.00,North,-999,-999.0,-999.0,99,-99.99,,,-99.99,,2013-12-02 10:38:00,
2013-12-02 05:43:00,33.4,33.4,-100.00,North,-999,-999.0,-999.0,99,-99.99,,,-99.99,,2013-12-02 10:43:00,
2013-12-02 05:48:00,33.4,33.4,-100.00,North,-999,-999.0,-999.0,99,-99.99,,,-99.99,,2013-12-02 10:48:00,
2013-12-02 05:53:00,33.4,33.4,-100.00,North,-999,-999.0,-999.0,99,-99.99,,,-99.99,,2013-12-02 10:53:00,
2013-12-02 05:58:00,33.4,33.4,-100.00,North,-999,-999.0,-999.0,99,-99.99,,,-99.99,,2013-12-02 10:58:00,
2013-12-02 06:03:00,33.4,33.4,-100.00,North,-999,-999.0,-999.0,99,-99.99,,,-99.99,,2013-12-02 11:03:00,
2013-12-02 06:08:00,33.4,33.4,-100.00,North,-999,-999.0,-999.0,99,-99.99,,,-99.99,,2013-12-02 11:08:00,
2013-12-02 06:13:00,33.4,33.4,-100.00,North,-999,-999.0,-999.0,99,-99.99,,,-99.99,,2013-12-02 11:13:00,
2013-12-02 06:18:00,33.4,33.4,-100.00,North,-999,-999.0,-999.0,99,-99.99,,,-99.99,,2013-12-02 11:18:00,
2013-12-02 06:23:00,33.4,33.4,-100.00,North,-999,-999.0,-999.0,99,-99.99,,,-99.99,,2013-12-02 11:23:00,
2013-12-02 06:28:00,33.4,33.4,-100.00,North,-999,-999.0,-999.0,99,-99.99,,,-99.99,,2013-12-02 11:28:00,
2013-12-02 06:33:00,33.4,33.4,-100.00,North,-999,-999.0,-999.0,99,-99.99,,,-99.99,,2013-12-02 11:33:00,
2013-12-02 06:38:00,33.4,33.4,-100.00,North,-999,-999.0,-999.0,99,-99.99,,,-99.99,,2013-12-02 11:38:00,
2013-12-02 06:43:00,33.4,33.4,-100.00,North,-999,-999.0,-999.0,99,-99.99,,,-99.99,,2013-12-02 11:43:00,
2013-12-02 06:48:00,33.3,33.2,-100.00,North,-999,-999.0,-999.0,99,-99.99,,,-99.99,,2013-12-02 11:48:00,
2013-12-02 06:53:00,33.4,33.4,-100.00,North,-999,-999.0,-999.0,99,-99.99,,,-99.99,,2013-12-02 11:53:00,
2013-12-02 06:58:00,33.4,33.4,-100.00,North,-999,-999.0,-999.0,99,-99.99,,,-99.99,,2013-12-02 11:58:00,
2013-12-02 07:03:00,33.4,33.4,-100.00,North,-999,-999.0,-999.0,99,-99.99,,,-99.99,,2013-12-02 12:03:00,
2013-12-02 07:08:00,33.4,33.4,-100.00,North,-999,-999.0,-999.0,99,-99.99,,,-99.99,,2013-12-02 12:08:00,
2013-12-02 07:13:00,33.4,33.4,-100.00,North,-999,-999.0,-999.0,99,-99.99,,,-99.99,,2013-12-02 12:13:00,
2013-12-02 07:18:00,33.4,33.4,-100.00,North,-999,-999.0,-999.0,99,-99.99,,,-99.99,,2013-12-02 12:18:00,
2013-12-02 07:23:00,33.4,33.4,-100.00,North,-999,-999.0,-999.0,99,-99.99,,,-99.99,,2013-12-02 12:23:00,
2013-12-02 07:28:00,33.4,33.4,-100.00,North,-999,-999.0,-999.0,99,-99.99,,,-99.99,,2013-12-02 12:28:00,
2013-12-02 07:33:00,33.6,33.6,-100.00,North,-999,-999.0,-999.0,99,-99.99,,,-99.99,,2013-12-02 12:33:00,
2013-12-02 07:38:00,33.4,33.4,-100.00,North,-999,-999.0,-999.0,99,-99.99,,,-99.99,,2013-12-02 12:38:00,
2013-12-02 07:43:00,33.6,33.6,-100.00,North,-999,-999.0,-999.0,99,-99.99,,,-99.99,,2013-12-02 12:43:00,
2013-12-02 07:48:00,33.6,33.6,-100.00,North,-999,-999.0,-999.0,99,-99.99,,,-99.99,,2013-12-02 12:48:00,
2013-12-02 07:53:00,33.6,33.6,-100.00,North,-999,-999.0,-999.0,99,-99.99,,,-99.99,,2013-12-02 12:53:00,
2013-12-02 07:58:00,33.8,33.8,-100.00,North,-999,-999.0,-999.0,99,-99.99,,,-99.99,,2013-12-02 12:58:00,
2013-12-02 08:03:00,33.8,33.8,-100.00,North,-999,-999.0,-999.0,99,-99.99,,,-99.99,,2013-12-02 13:03:00,
2013-12-02 08:08:00,34.0,33.9,-100.00,North,-999,-999.0,-999.0,99,-99.99,,,-99.99,,2013-12-02 13:08:00,
2013-12-02 08:13:00,34.0,33.9,-100.00,North,-999,-999.0,-999.0,99,-99.99,,,-99.99,,2013-12-02 13:13:00,
2013-12-02 08:18:00,34.2,34.1,-100.00,North,-999,-999.0,-999.0,99,-99.99,,,-99.99,,2013-12-02 13:18:00,
2013-12-02 08:23:00,34.2,34.1,-100.00,North,-999,-999.0,-999.0,99,-99.99,,,-99.99,,2013-12-02 13:23:00,
2013-12-02 08:28:00,34.5,34.5,-100.00,North,-999,-999.0,-999.0,99,-99.99,,,-99.99,,2013-12-02 13:28:00,
2013-12-02 08:33:00,34.5,34.5,-100.00,North,-999,-999.0,-999.0,99,-99.99,,,-99.99,,2013-12-02 13:33:00,
2013-12-02 08:38:00,34.7,34.7,-100.00,North,-999,-999.0,-999.0,99,-99.99,,,-99.99,,2013-12-02 13:38:00,
2013-12-02 08:43:00,34.9,34.8,-100.00,North,-999,-999.0,-999.0,99,-99.99,,,-99.99,,2013-12-02 13:43:00,
2013-12-02 08:48:00,34.9,34.8,-100.00,North,-999,-999.0,-999.0,99,-99.99,,,-99.99,,2013-12-02 13:48:00,
2013-12-02 08:53:00,34.9,34.8,-100.00,North,-999,-999.0,-999.0,99,-99.99,,,-99.99,,2013-12-02 13:53:00,
2013-12-02 08:58:00,35.1,35.0,-100.00,North,-999,-999.0,-999.0,99,-99.99,,,-99.99,,2013-12-02 13:58:00,
2013-12-02 09:03:00,35.1,35.0,-100.00,North,-999,-999.0,-999.0,99,-99.99,,,-99.99,,2013-12-02 14:03:00,
2013-12-02 09:08:00,35.4,35.4,-100.00,North,-999,-999.0,-999.0,99,-99.99,,,-99.99,,2013-12-02 14:08:00,
2013-12-02 09:13:00,35.6,35.6,-100.00,North,-999,-999.0,-999.0,99,-99.99,,,-99.99,,2013-12-02 14:13:00,
2013-12-02 09:18:00,35.4,35.4,-100.00,North,-999,-999.0,-999.0,99,-99.99,,,-99.99,,2013-12-02 14:18:00,
2013-12-02 09:24:00,35.4,35.4,-100.00,North,-999,-999.0,-999.0,99,-99.99,,,-99.99,,2013-12-02 14:24:00,
2013-12-02 09:29:00,35.4,35.4,-100.00,North,-999,-999.0,-999.0,99,-99.99,,,-99.99,,2013-12-02 14:29:00,
2013-12-02 09:34:00,35.4,35.4,-100.00,North,-999,-999.0,-999.0,99,-99.99,,,-99.99,,2013-12-02 14:34:00,
2013-12-02 09:39:00,35.4,35.4,-100.00,North,-999,-999.0,-999.0,99,-99.99,,,-99.99,,2013-12-02 14:39:00,
2013-12-02 09:44:00,35.6,35.6,-100.00,North,-999,-999.0,-999.0,99,-99.99,,,-99.99,,2013-12-02 14:44:00,
2013-12-02 09:49:00,35.6,35.6,-100.00,North,-999,-999.0,-999.0,99,-99.99,,,-99.99,,2013-12-02 14:49:00,
2013-12-02 09:54:00,36.0,35.9,-100.00,North,-999,-999.0,-999.0,99,-99.99,,,-99.99,,2013-12-02 14:54:00,
2013-12-02 09:59:00,36.0,35.9,-100.00,North,-999,-999.0,-999.0,99,-99.99,,,-99.99,,2013-12-02 14:59:00,
2013-12-02 10:04:00,36.0,35.9,-100.00,North,-999,-999.0,-999.0,99,-99.99,,,-99.99,,2013-12-02 15:04:00,
2013-12-02 10:09:00,36.0,35.9,-100.00,North,-999,-999.0,-999.0,99,-99.99,,,-99.99,,2013-12-02 15:09:00,
2013-12-02 10:14:00,36.1,36.1,-100.00,North,-999,-999.0,-999.0,99,-99.99,,,-99.99,,2013-12-02 15:14:00,
2013-12-02 10:19:00,36.1,36.1,-100.00,North,-999,-999.0,-999.0,99,-99.99,,,-99.99,,2013-12-02 15:19:00,
2013-12-02 10:24:00,36.1,36.1,-100.00,North,-999,-999.0,-999.0,99,-99.99,,,-99.99,,2013-12-02 15:24:00,
2013-12-02 10:29:00,36.1,36.1,-100.00,North,-999,-999.0,-999.0,99,-99.99,,,-99.99,,2013-12-02 15:29:00,
2013-12-02 10:34:00,36.1,36.1,-100.00,North,-999,-999.0,-999.0,99,-99.99,,,-99.99,,2013-12-02 15:34:00,
2013-12-02 10:39:00,36.1,36.1,-100.00,North,-999,-999.0,-999.0,99,-99.99,,,-99.99,,2013-12-02 15:39:00,
2013-12-02 10:44:00,36.1,36.1,-100.00,North,-999,-999.0,-999.0,99,-99.99,,,-99.99,,2013-12-02 15:44:00,
2013-12-02 10:49:00,36.1,36.1,-100.00,North,-999,-999.0,-999.0,99,-99.99,,,-99.99,,2013-12-02 15:49:00,
2013-12-02 10:54:00,36.1,36.1,-100.00,North,-999,-999.0,-999.0,99,-99.99,,,-99.99,,2013-12-02 15:54:00,
2013-12-02 10:59:00,36.3,36.3,-100.00,North,-999,-999.0,-999.0,99,-99.99,,,-99.99,,2013-12-02 15:59:00,
2013-12-02 11:04:00,36.3,36.3,-100.00,North,-999,-999.0,-999.0,99,-99.99,,,-99.99,,2013-12-02 16:04:00,
2013-12-02 11:09:00,36.3,36.3,-100.00,North,-999,-999.0,-999.0,99,-99.99,,,-99.99,,2013-12-02 16:09:00,
2013-12-02 11:14:00,36.5,36.5,-100.00,North,-999,-999.0,-999.0,99,-99.99,,,-99.99,,2013-12-02 16:14:00,
2013-12-02 11:19:00,36.3,36.3,-100.00,North,-999,-999.0,-999.0,99,-99.99,,,-99.99,,2013-12-02 16:19:00,
2013-12-02 11:24:00,36.3,36.3,-100.00,North,-999,-999.0,-999.0,99,-99.99,,,-99.99,,2013-12-02 16:24:00,
2013-12-02 11:29:00,36.3,36.3,-100.00,North,-999,-999.0,-999.0,99,-99.99,,,-99.99,,2013-12-02 16:29:00,
2013-12-02 11:34:00,36.5,36.5,-100.00,North,-999,-999.0,-999.0,99,-99.99,,,-99.99,,2013-12-02 16:34:00,
2013-12-02 11:39:00,36.5,36.5,-100.00,North,-999,-999.0,-999.0,99,-99.99,,,-99.99,,2013-12-02 16:39:00,
2013-12-02 11:44:00,36.5,36.5,-100.00,North,-999,-999.0,-999.0,99,-99.99,,,-99.99,,2013-12-02 16:44:00,
2013-12-02 11:49:00,36.5,36.5,-100.00,North,-999,-999.0,-999.0,99,-99.99,,,-99.99,,2013-12-02 16:49:00,
2013-12-02 11:54:00,36.5,36.5,-100.00,North,-999,-999.0,-999.0,99,-99.99,,,-99.99,,2013-12-02 16:54:00,
2013-12-02 11:59:00,36.5,36.5,-100.00,North,-999,-999.0,-999.0,99,-99.99,,,-99.99,,2013-12-02 16:59:00,
2013-12-02 12:04:00,36.5,36.5,-100.00,North,-999,-999.0,-999.0,99,-99.99,,,-99.99,,2013-12-02 17:04:00,
2013-12-02 12:09:00,36.5,36.5,-100.00,North,-999,-999.0,-999.0,99,-99.99,,,-99.99,,2013-12-02 17:09:00,
2013-12-02 12:14:00,36.5,36.5,-100.00,North,-999,-999.0,-999.0,99,-99.99,,,-99.99,,2013-12-02 17:14:00,
2013-12-02 12:19:00,36.5,36.5,-100.00,North,-999,-999.0,-999.0,99,-99.99,,,-99.99,,2013-12-02 17:19:00,
2013-12-02 12:24:00,36.5,36.5,-100.00,North,-999,-999.0,-999.0,99,-99.99,,,-99.99,,2013-12-02 17:24:00,
2013-12-02 12:29:00,36.5,36.5,-100.00,North,-999,-999.0,-999.0,99,-99.99,,,-99.99,,2013-12-02 17:29:00,
2013-12-02 12:34:00,36.5,36.5,-100.00,North,-999,-999.0,-999.0,99,-99.99,,,-99.99,,2013-12-02 17:34:00,
2013-12-02 12:39:00,36.7,36.6,-100.00,North,-999,-999.0,-999.0,99,-99.99,,,-99.99,,2013-12-02 17:39:00,
2013-12-02 12:44:00,36.7,36.6,-100.00,North,-999,-999.0,-999.0,99,-99.99,,,-99.99,,2013-12-02 17:44:00,
2013-12-02 12:49:00,36.7,36.6,-100.00,North,-999,-999.0,-999.0,99,-99.99,,,-99.99,,2013-12-02 17:49:00,
2013-12-02 12:54:00,36.9,36.8,-100.00,North,-999,-999.0,-999.0,99,-99.99,,,-99.99,,2013-12-02 17:54:00,
2013-12-02 12:59:00,36.9,36.8,-100.00,North,-999,-999.0,-999.0,99,-99.99,,,-99.99,,2013-12-02 17:59:00,
2013-12-02 13:04:00,36.7,36.6,-100.00,North,-999,-999.0,-999.0,99,-99.99,,,-99.99,,2013-12-02 18:04:00,
2013-12-02 13:09:00,36.9,36.8,-100.00,North,-999,-999.0,-999.0,99,-99.99,,,-99.99,,2013-12-02 18:09:00,
2013-12-02 13:14:00,36.9,36.8,-100.00,North,-999,-999.0,-999.0,99,-99.99,,,-99.99,,2013-12-02 18:14:00,
2013-12-02 13:19:00,36.7,36.6,-100.00,North,-999,-999.0,-999.0,99,-99.99,,,-99.99,,2013-12-02 18:19:00,
2013-12-02 13:24:00,36.9,36.8,-100.00,North,-999,-999.0,-999.0,99,-99.99,,,-99.99,,2013-12-02 18:24:00,
2013-12-02 13:29:00,36.9,36.8,-100.00,North,-999,-999.0,-999.0,99,-99.99,,,-99.99,,2013-12-02 18:29:00,
2013-12-02 13:34:00,36.9,36.8,-100.00,North,-999,-999.0,-999.0,99,-99.99,,,-99.99,,2013-12-02 18:34:00,
2013-12-02 13:39:00,36.9,36.8,-100.00,North,-999,-999.0,-999.0,99,-99.99,,,-99.99,,2013-12-02 18:39:00,
2013-12-02 13:44:00,36.9,36.8,-100.00,North,-999,-999.0,-999.0,99,-99.99,,,-99.99,,2013-12-02 18:44:00,
2013-12-02 13:49:00,37.0,37.0,-100.00,North,-999,-999.0,-999.0,99,-99.99,,,-99.99,,2013-12-02 18:49:00,
2013-12-02 13:54:00,37.0,37.0,-100.00,North,-999,-999.0,-999.0,99,-99.99,,,-99.99,,2013-12-02 18:54:00,
2013-12-02 13:59:00,37.0,37.0,-100.00,North,-999,-999.0,-999.0,99,-99.99,,,-99.99,,2013-12-02 18:59:00,
2013-12-02 14:04:00,37.0,37.0,-100.00,North,-999,-999.0,-999.0,99,-99.99,,,-99.99,,2013-12-02 19:04:00,
2013-12-02 14:09:00,37.0,37.0,-100.00,North,-999,-999.0,-999.0,99,-99.99,,,-99.99,,2013-12-02 19:09:00,
2013-12-02 14:14:00,37.0,37.0,-100.00,North,-999,-999.0,-999.0,99,-99.99,,,-99.99,,2013-12-02 19:14:00,
2013-12-02 14:19:00,37.2,37.2,-100.00,North,-999,-999.0,-999.0,99,-99.99,,,-99.99,,2013-12-02 19:19:00,
2013-12-02 14:24:00,37.0,37.0,-100.00,North,-999,-999.0,-999.0,99,-99.99,,,-99.99,,2013-12-02 19:24:00,
2013-12-02 14:29:00,37.2,37.2,-100.00,North,-999,-999.0,-999.0,99,-99.99,,,-99.99,,2013-12-02 19:29:00,
2013-12-02 14:34:00,37.2,37.2,-100.00,North,-999,-999.0,-999.0,99,-99.99,,,-99.99,,2013-12-02 19:34:00,
2013-12-02 14:39:00,37.2,37.2,-100.00,North,-999,-999.0,-999.0,99,-99.99,,,-99.99,,2013-12-02 19:39:00,
2013-12-02 14:44:00,37.4,37.4,-100.00,North,-999,-999.0,-999.0,99,-99.99,,,-99.99,,2013-12-02 19:44:00,
2013-12-02 14:49:00,37.4,37.4,-100.00,North,-999,-999.0,-999.0,99,-99.99,,,-99.99,,2013-12-02 19:49:00,
2013-12-02 14:54:00,37.4,37.4,-100.00,North,-999,-999.0,-999.0,99,-99.99,,,-99.99,,2013-12-02 19:54:00,
2013-12-02 14:59:00,37.4,37.4,-100.00,North,-999,-999.0,-999.0,99,-99.99,,,-99.99,,2013-12-02 19:59:00,
2013-12-02 15:04:00,37.6,37.5,-100.00,North,-999,-999.0,-999.0,99,-99.99,,,-99.99,,2013-12-02 20:04:00,
2013-12-02 15:09:00,37.6,37.5,-100.00,North,-999,-999.0,-999.0,99,-99.99,,,-99.99,,2013-12-02 20:09:00,
2013-12-02 15:14:00,37.6,37.5,-100.00,North,-999,-999.0,-999.0,99,-99.99,,,-99.99,,2013-12-02 20:14:00,
2013-12-02 15:19:00,37.6,37.5,-100.00,North,-999,-999.0,-999.0,99,-99.99,,,-99.99,,2013-12-02 20:19:00,
2013-12-02 15:24:00,37.6,37.5,-100.00,North,-999,-999.0,-999.0,99,-99.99,,,-99.99,,2013-12-02 20:24:00,
2013-12-02 15:29:00,37.4,37.4,-100.00,North,-999,-999.0,-999.0,99,-99.99,,,-99.99,,2013-12-02 20:29:00,
2013-12-02 15:34:00,37.4,37.4,-100.00,North,-999,-999.0,-999.0,99,-99.99,,,-99.99,,2013-12-02 20:34:00,
2013-12-02 15:39:00,37.6,37.5,-100.00,North,-999,-999.0,-999.0,99,-99.99,,,-99.99,,2013-12-02 20:39:00,
2013-12-02 15:44:00,37.6,37.5,-100.00,North,-999,-999.0,-999.0,99,-99.99,,,-99.99,,2013-12-02 20:44:00,
2013-12-02 15:49:00,37.6,37.5,-100.00,North,-999,-999.0,-999.0,99,-99.99,,,-99.99,,2013-12-02 20:49:00,
2013-12-02 15:54:00,37.6,37.5,-100.00,North,-999,-999.0,-999.0,99,-99.99,,,-99.99,,2013-12-02 20:54:00,
2013-12-02 15:59:00,37.2,37.2,-100.00,North,-999,-999.0,-999.0,99,-99.99,,,-99.99,,2013-12-02 20:59:00,
2013-12-02 16:04:00,37.0,37.0,-100.00,North,-999,-999.0,-999.0,99,-99.99,,,-99.99,,2013-12-02 21:04:00,
2013-12-02 16:09:00,36.7,36.6,-100.00,North,-999,-999.0,-999.0,99,-99.99,,,-99.99,,2013-12-02 21:09:00,
2013-12-02 16:14:00,36.5,36.5,-100.00,North,-999,-999.0,-999.0,99,-99.99,,,-99.99,,2013-12-02 21:14:00,
2013-12-02 16:19:00,36.1,36.1,-100.00,North,-999,-999.0,-999.0,99,-99.99,,,-99.99,,2013-12-02 21:19:00,
2013-12-02 16:24:00,36.0,35.9,-100.00,North,-999,-999.0,-999.0,99,-99.99,,,-99.99,,2013-12-02 21:24:00,
2013-12-02 16:29:00,35.8,35.7,-100.00,North,-999,-999.0,-999.0,99,-99.99,,,-99.99,,2013-12-02 21:29:00,
2013-12-02 16:34:00,35.8,35.7,-100.00,North,-999,-999.0,-999.0,99,-99.99,,,-99.99,,2013-12-02 21:34:00,
2013-12-02 16:39:00,35.8,35.7,-100.00,North,-999,-999.0,-999.0,99,-99.99,,,-99.99,,2013-12-02 21:39:00,
2013-12-02 16:44:00,35.6,35.6,-100.00,North,-999,-999.0,-999.0,99,-99.99,,,-99.99,,2013-12-02 21:44:00,
2013-12-02 16:49:00,35.6,35.6,-100.00,North,-999,-999.0,-999.0,99,-99.99,,,-99.99,,2013-12-02 21:49:00,
2013-12-02 16:54:00,35.6,35.6,-100.00,North,-999,-999.0,-999.0,99,-99.99,,,-99.99,,2013-12-02 21:54:00,
2013-12-02 16:59:00,35.6,35.6,-100.00,North,-999,-999.0,-999.0,99,-99.99,,,-99.99,,2013-12-02 21:59:00,
2013-12-02 17:04:00,35.6,35.6,-100.00,North,-999,-999.0,-999.0,99,-99.99,,,-99.99,,2013-12-02 22:04:00,
2013-12-02 17:09:00,35.6,35.6,-100.00,North,-999,-999.0,-999.0,99,-99.99,,,-99.99,,2013-12-02 22:09:00,
2013-12-02 17:14:00,35.6,35.6,-100.00,North,-999,-999.0,-999.0,99,-99.99,,,-99.99,,2013-12-02 22:14:00,
2013-12-02 17:19:00,35.6,35.6,-100.00,North,-999,-999.0,-999.0,99,-99.99,,,-99.99,,2013-12-02 22:19:00,
2013-12-02 17:24:00,35.6,35.6,-100.00,North,-999,-999.0,-999.0,99,-99.99,,,-99.99,,2013-12-02 22:24:00,
2013-12-02 17:29:00,35.6,35.6,-100.00,North,-999,-999.0,-999.0,99,-99.99,,,-99.99,,2013-12-02 22:29:00,
2013-12-02 17:34:00,35.6,35.6,-100.00,North,-999,-999.0,-999.0,99,-99.99,,,-99.99,,2013-12-02 22:34:00,
2013-12-02 17:39:00,35.6,35.6,-100.00,North,-999,-999.0,-999.0,99,-99.99,,,-99.99,,2013-12-02 22:39:00,
2013-12-02 17:44:00,35.4,35.4,-100.00,North,-999,-999.0,-999.0,99,-99.99,,,-99.99,,2013-12-02 22:44:00,
2013-12-02 17:49:00,35.4,35.4,-100.00,North,-999,-999.0,-999.0,99,-99.99,,,-99.99,,2013-12-02 22:49:00,
2013-12-02 17:54:00,35.4,35.4,-100.00,North,-999,-999.0,-999.0,99,-99.99,,,-99.99,,2013-12-02 22:54:00,
2013-12-02 17:59:00,35.2,35.2,-100.00,North,-999,-999.0,-999.0,99,-99.99,,,-99.99,,2013-12-02 22:59:00,
2013-12-02 18:04:00,35.2,35.2,-100.00,North,-999,-999.0,-999.0,99,-99.99,,,-99.99,,2013-12-02 23:04:00,
2013-12-02 18:09:00,35.2,35.2,-100.00,North,-999,-999.0,-999.0,99,-99.99,,,-99.99,,2013-12-02 23:09:00,
2013-12-02 18:14:00,35.1,35.0,-100.00,North,-999,-999.0,-999.0,99,-99.99,,,-99.99,,2013-12-02 23:14:00,
2013-12-02 18:19:00,35.1,35.0,-100.00,North,-999,-999.0,-999.0,99,-99.99,,,-99.99,,2013-12-02 23:19:00,
2013-12-02 18:24:00,35.1,35.0,-100.00,North,-999,-999.0,-999.0,99,-99.99,,,-99.99,,2013-12-02 23:24:00,
2013-12-02 18:29:00,34.9,34.8,-100.00,North,-999,-999.0,-999.0,99,-99.99,,,-99.99,,2013-12-02 23:29:00,
2013-12-02 18:34:00,34.9,34.8,-100.00,North,-999,-999.0,-999.0,99,-99.99,,,-99.99,,2013-12-02 23:34:00,
2013-12-02 18:39:00,34.7,34.7,-100.00,North,-999,-999.0,-999.0,99,-99.99,,,-99.99,,2013-12-02 23:39:00,
2013-12-02 18:44:00,34.3,34.3,-100.00,North,-999,-999.0,-999.0,99,-99.99,,,-99.99,,2013-12-02 23:44:00,
2013-12-02 18:49:00,34.3,34.3,-100.00,North,-999,-999.0,-999.0,99,-99.99,,,-99.99,,2013-12-02 23:49:00,
2013-12-02 18:54:00,34.2,34.1,-100.00,North,-999,-999.0,-999.0,99,-99.99,,,-99.99,,2013-12-02 23:54:00,
2013-12-02 18:59:00,33.8,33.8,-100.00,North,-999,-999.0,-999.0,99,-99.99,,,-99.99,,2013-12-02 23:59:00,
2013-12-02 19:04:00,33.6,33.6,-100.00,North,-999,-999.0,-999.0,99,-99.99,,,-99.99,,2013-12-03 00:04:00,
2013-12-02 19:09:00,33.3,33.2,-100.00,North,-999,-999.0,-999.0,99,-99.99,,,-99.99,,2013-12-03 00:09:00,
2013-12-02 19:14:00,33.1,33.0,-100.00,North,-999,-999.0,-999.0,99,-99.99,,,-99.99,,2013-12-03 00:14:00,
2013-12-02 19:19:00,32.7,32.7,-100.00,North,-999,-999.0,-999.0,99,-99.99,,,-99.99,,2013-12-03 00:19:00,
2013-12-02 19:24:00,32.5,32.5,-100.00,North,-999,-999.0,-999.0,99,-99.99,,,-99.99,,2013-12-03 00:24:00,
2013-12-02 19:29:00,32.4,32.3,-100.00,North,-999,-999.0,-999.0,99,-99.99,,,-99.99,,2013-12-03 00:29:00,
2013-12-02 19:34:00,32.2,32.1,-100.00,North,-999,-999.0,-999.0,99,-99.99,,,-99.99,,2013-12-03 00:34:00,
2013-12-02 19:39:00,32.0,32.0,-100.00,North,-999,-999.0,-999.0,99,-99.99,,,-99.99,,2013-12-03 00:39:00,
2013-12-02 19:44:00,31.8,31.8,-100.00,North,-999,-999.0,-999.0,99,-99.99,,,-99.99,,2013-12-03 00:44:00,
2013-12-02 19:49:00,31.6,31.6,-100.00,North,-999,-999.0,-999.0,99,-99.99,,,-99.99,,2013-12-03 00:49:00,
2013-12-02 19:54:00,31.6,31.6,-100.00,North,-999,-999.0,-999.0,99,-99.99,,,-99.99,,2013-12-03 00:54:00,
2013-12-02 19:59:00,31.5,31.4,-100.00,North,-999,-999.0,-999.0,99,-99.99,,,-99.99,,2013-12-03 00:59:00,
2013-12-02 20:04:00,31.5,31.4,-100.00,North,-999,-999.0,-999.0,99,-99.99,,,-99.99,,2013-12-03 01:04:00,
2013-12-02 20:09:00,31.5,31.4,-100.00,North,-999,-999.0,-999.0,99,-99.99,,,-99.99,,2013-12-03 01:09:00,
2013-12-02 20:14:00,31.3,31.2,-100.00,North,-999,-999.0,-999.0,99,-99.99,,,-99.99,,2013-12-03 01:14:00,
2013-12-02 20:19:00,31.5,31.4,-100.00,North,-999,-999.0,-999.0,99,-99.99,,,-99.99,,2013-12-03 01:19:00,
2013-12-02 20:24:00,31.5,31.4,-100.00,North,-999,-999.0,-999.0,99,-99.99,,,-99.99,,2013-12-03 01:24:00,
2013-12-02 20:29:00,31.5,31.4,-100.00,North,-999,-999.0,-999.0,99,-99.99,,,-99.99,,2013-12-03 01:29:00,
2013-12-02 20:34:00,31.5,31.4,-100.00,North,-999,-999.0,-999.0,99,-99.99,,,-99.99,,2013-12-03 01:34:00,
2013-12-02 20:39:00,31.5,31.4,-100.00,North,-999,-999.0,-999.0,99,-99.99,,,-99.99,,2013-12-03 01:39:00,
2013-12-02 20:44:00,31.3,31.2,-100.00,North,-999,-999.0,-999.0,99,-99.99,,,-99.99,,2013-12-03 01:44:00,
2013-12-02 20:49:00,31.3,31.2,-100.00,North,-999,-999.0,-999.0,99,-99.99,,,-99.99,,2013-12-03 01:49:00,
2013-12-02 20:54:00,31.5,31.4,-100.00,North,-999,-999.0,-999.0,99,-99.99,,,-99.99,,2013-12-03 01:54:00,
2013-12-02 20:59:00,31.5,31.4,-100.00,North,-999,-999.0,-999.0,99,-99.99,,,-99.99,,2013-12-03 01:59:00,
2013-12-02 21:04:00,31.5,31.4,-100.00,North,-999,-999.0,-999.0,99,-99.99,,,-99.99,,2013-12-03 02:04:00,
2013-12-02 21:09:00,31.5,31.4,-100.00,North,-999,-999.0,-999.0,99,-99.99,,,-99.99,,2013-12-03 02:09:00,
2013-12-02 21:14:00,31.5,31.4,-100.00,North,-999,-999.0,-999.0,99,-99.99,,,-99.99,,2013-12-03 02:14:00,
2013-12-02 21:19:00,31.6,31.6,-100.00,North,-999,-999.0,-999.0,99,-99.99,,,-99.99,,2013-12-03 02:19:00,
2013-12-02 21:24:00,31.8,31.8,-100.00,North,-999,-999.0,-999.0,99,-99.99,,,-99.99,,2013-12-03 02:24:00,
2013-12-02 21:29:00,31.8,31.8,-100.00,North,-999,-999.0,-999.0,99,-99.99,,,-99.99,,2013-12-03 02:29:00,
2013-12-02 21:34:00,32.0,32.0,-100.00,North,-999,-999.0,-999.0,99,-99.99,,,-99.99,,2013-12-03 02:34:00,
2013-12-02 21:39:00,32.0,32.0,-100.00,North,-999,-999.0,-999.0,99,-99.99,,,-99.99,,2013-12-03 02:39:00,
2013-12-02 21:44:00,32.0,32.0,-100.00,North,-999,-999.0,-999.0,99,-99.99,,,-99.99,,2013-12-03 02:44:00,
2013-12-02 21:49:00,32.2,32.1,-100.00,North,-999,-999.0,-999.0,99,-99.99,,,-99.99,,2013-12-03 02:49:00,
2013-12-02 21:54:00,32.2,32.1,-100.00,North,-999,-999.0,-999.0,99,-99.99,,,-99.99,,2013-12-03 02:54:00,
2013-12-02 21:59:00,32.2,32.1,-100.00,North,-999,-999.0,-999.0,99,-99.99,,,-99.99,,2013-12-03 02:59:00,
2013-12-02 22:04:00,32.2,32.1,-100.00,North,-999,-999.0,-999.0,99,-99.99,,,-99.99,,2013-12-03 03:04:00,
2013-12-02 22:09:00,32.2,32.1,-100.00,North,-999,-999.0,-999.0,99,-99.99,,,-99.99,,2013-12-03 03:09:00,
2013-12-02 22:14:00,32.4,32.3,-100.00,North,-999,-999.0,-999.0,99,-99.99,,,-99.99,,2013-12-03 03:14:00,
2013-12-02 22:19:00,32.2,32.1,-100.00,North,-999,-999.0,-999.0,99,-99.99,,,-99.99,,2013-12-03 03:19:00,
2013-12-02 22:24:00,32.0,32.0,-100.00,North,-999,-999.0,-999.0,99,-99.99,,,-99.99,,2013-12-03 03:24:00,
2013-12-02 22:29:00,32.0,32.0,-100.00,North,-999,-999.0,-999.0,99,-99.99,,,-99.99,,2013-12-03 03:29:00,
2013-12-02 22:34:00,32.0,32.0,-100.00,North,-999,-999.0,-999.0,99,-99.99,,,-99.99,,2013-12-03 03:34:00,
2013-12-02 22:39:00,31.8,31.8,-100.00,North,-999,-999.0,-999.0,99,-99.99,,,-99.99,,2013-12-03 03:39:00,
2013-12-02 22:44:00,31.6,31.6,-100.00,North,-999,-999.0,-999.0,99,-99.99,,,-99.99,,2013-12-03 03:44:00,
2013-12-02 22:49:00,31.6,31.6,-100.00,North,-999,-999.0,-999.0,99,-99.99,,,-99.99,,2013-12-03 03:49:00,
2013-12-02 22:54:00,31.5,31.4,-100.00,North,-999,-999.0,-999.0,99,-99.99,,,-99.99,,2013-12-03 03:54:00,
2013-12-02 22:59:00,31.5,31.4,-100.00,North,-999,-999.0,-999.0,99,-99.99,,,-99.99,,2013-12-03 03:59:00,
2013-12-02 23:04:00,31.3,31.2,-100.00,North,-999,-999.0,-999.0,99,-99.99,,,-99.99,,2013-12-03 04:04:00,
2013-12-02 23:09:00,31.3,31.2,-100.00,North,-999,-999.0,-999.0,99,-99.99,,,-99.99,,2013-12-03 04:09:00,
2013-12-02 23:14:00,31.5,31.4,-100.00,North,-999,-999.0,-999.0,99,-99.99,,,-99.99,,2013-12-03 04:14:00,
2013-12-02 23:19:00,31.3,31.2,-100.00,North,-999,-999.0,-999.0,99,-99.99,,,-99.99,,2013-12-03 04:19:00,
2013-12-02 23:25:00,31.3,31.2,-100.00,North,-999,-999.0,-999.0,99,-99.99,,,-99.99,,2013-12-03 04:25:00,
2013-12-02 23:30:00,31.3,31.2,-100.00,North,-999,-999.0,-999.0,99,-99.99,,,-99.99,,2013-12-03 04:30:00,
2013-12-02 23:35:00,31.3,31.2,-100.00,North,-999,-999.0,-999.0,99,-99.99,,,-99.99,,2013-12-03 04:35:00,
2013-12-02 23:40:00,31.3,31.2,-100.00,North,-999,-999.0,-999.0,99,-99.99,,,-99.99,,2013-12-03 04:40:00,
2013-12-02 23:45:00,31.3,31.2,-100.00,North,-999,-999.0,-999.0,99,-99.99,,,-99.99,,2013-12-03 04:45:00,
2013-12-02 23:50:00,31.5,31.4,-100.00,North,-999,-999.0,-999.0,99,-99.99,,,-99.99,,2013-12-03 04:50:00,
2013-12-02 23:55:00,31.5,31.4,-100.00,North,-999,-999.0,-999.0,99,-99.99,,,-99.99,,2013-12-03 04:55:00,